Time;durP1;ratioP1;P1;durP2;ratioP2;P2;SDS_P1;SDS_P2;PMS_P1;PMS_P2;Temp;Humidity;BMP_temperature;BMP_pressure;BME280_temperature;BME280_humidity;BME280_pressure;Samples;Min_cycle;Max_cycle;Signal;HPM_P1;HPM_P2
2023/07/11 00:00:29;;;;;;;4.50;2.22;;;;;;;;;;5093271;28;20032;-72
2023/07/11 00:02:55;;;;;;;5.72;2.53;;;;;;;;;;5094175;28;20040;-72
2023/07/11 00:05:21;;;;;;;4.45;2.33;;;;;;;;;;5093608;28;20058;-72
2023/07/11 00:07:47;;;;;;;5.88;2.55;;;;;;;;;;5094310;28;20254;-72
2023/07/11 00:10:18;;;;;;;4.75;2.00;;;;;;;;;;5092383;28;20123;-72
2023/07/11 00:12:45;;;;;;;5.95;2.30;;;;;;;;;;5092629;28;20036;-72
2023/07/11 00:15:12;;;;;;;4.95;2.10;;;;;;;;;;5091835;28;20044;-72
2023/07/11 00:17:38;;;;;;;5.63;2.60;;;;;;;;;;5092756;28;20040;-72
2023/07/11 00:20:05;;;;;;;5.10;2.08;;;;;;;;;;5076046;28;20115;-76
2023/07/11 00:22:32;;;;;;;7.53;2.13;;;;;;;;;;5093853;28;20684;-75
2023/07/11 00:24:58;;;;;;;5.45;2.20;;;;;;;;;;5094312;28;20462;-75
2023/07/11 00:27:25;;;;;;;5.70;2.63;;;;;;;;;;5075769;28;20411;-75
2023/07/11 00:29:51;;;;;;;5.70;2.33;;;;;;;;;;5093121;28;20082;-75
2023/07/11 00:32:17;;;;;;;6.13;2.63;;;;;;;;;;5092145;28;20076;-75
2023/07/11 00:34:44;;;;;;;6.45;2.67;;;;;;;;;;5093519;28;20408;-75
2023/07/11 00:37:10;;;;;;;6.93;2.40;;;;;;;;;;5093375;28;20040;-75
2023/07/11 00:39:37;;;;;;;5.97;2.67;;;;;;;;;;5092809;28;20036;-75
2023/07/11 00:42:04;;;;;;;7.60;2.35;;;;;;;;;;5093999;28;20114;-76
2023/07/11 00:44:50;;;;;;;4.75;2.47;;;;;;;;;;5093221;28;20044;-75
2023/07/11 00:47:16;;;;;;;4.22;2.65;;;;;;;;;;5091971;28;20036;-75
2023/07/11 00:49:42;;;;;;;6.75;2.58;;;;;;;;;;5079569;28;20393;-76
2023/07/11 00:52:08;;;;;;;6.40;2.45;;;;;;;;;;5092915;28;20039;-75
2023/07/11 00:54:35;;;;;;;6.25;2.80;;;;;;;;;;5074948;28;20043;-75
2023/07/11 00:57:03;;;;;;;6.00;2.60;;;;;;;;;;5091025;28;20492;-75
2023/07/11 00:59:30;;;;;;;6.10;2.50;;;;;;;;;;5090986;28;20101;-75
2023/07/11 01:02:17;;;;;;;5.35;2.70;;;;;;;;;;5093370;28;20059;-76
2023/07/11 01:04:43;;;;;;;5.40;2.92;;;;;;;;;;5102286;28;20054;-75
2023/07/11 01:07:11;;;;;;;5.68;2.58;;;;;;;;;;5092680;28;20036;-76
2023/07/11 01:09:37;;;;;;;6.57;2.80;;;;;;;;;;5092911;28;20139;-75
2023/07/11 01:12:05;;;;;;;6.05;2.78;;;;;;;;;;5091463;28;20036;-75
2023/07/11 01:14:32;;;;;;;5.57;2.80;;;;;;;;;;5092710;28;20032;-76
2023/07/11 01:16:58;;;;;;;6.00;2.90;;;;;;;;;;5092609;28;20109;-75
2023/07/11 01:19:24;;;;;;;4.65;2.58;;;;;;;;;;5092575;28;20050;-76
2023/07/11 01:21:50;;;;;;;6.22;2.75;;;;;;;;;;5091074;28;20035;-75
2023/07/11 01:24:16;;;;;;;5.55;3.10;;;;;;;;;;5090659;28;20089;-73
2023/07/11 01:26:43;;;;;;;8.07;3.53;;;;;;;;;;5091164;28;20040;-73
2023/07/11 01:29:09;;;;;;;6.88;3.60;;;;;;;;;;5091570;28;20070;-73
2023/07/11 01:31:35;;;;;;;8.63;2.90;;;;;;;;;;5074869;28;20497;-73
2023/07/11 01:34:02;;;;;;;6.75;3.47;;;;;;;;;;5092525;28;20048;-73
2023/07/11 01:36:28;;;;;;;7.85;3.92;;;;;;;;;;5092234;28;20043;-76
2023/07/11 01:38:54;;;;;;;6.47;3.33;;;;;;;;;;5074316;28;20466;-75
2023/07/11 01:41:20;;;;;;;7.00;3.65;;;;;;;;;;5090841;28;20040;-75
2023/07/11 01:43:47;;;;;;;6.13;3.72;;;;;;;;;;5073666;28;20044;-75
2023/07/11 01:46:13;;;;;;;4.97;3.60;;;;;;;;;;5090634;28;20055;-73
2023/07/11 01:48:39;;;;;;;6.05;3.60;;;;;;;;;;5073786;28;20174;-73
2023/07/11 01:51:05;;;;;;;5.85;3.38;;;;;;;;;;5092771;28;20504;-73
2023/07/11 01:53:31;;;;;;;10.80;3.95;;;;;;;;;;5089819;28;20047;-73
2023/07/11 01:55:58;;;;;;;11.25;3.97;;;;;;;;;;5091018;28;20492;-73
2023/07/11 01:58:25;;;;;;;7.22;4.20;;;;;;;;;;5092092;28;20032;-73
2023/07/11 02:00:51;;;;;;;8.15;4.10;;;;;;;;;;5090613;28;20094;-72
2023/07/11 02:03:17;;;;;;;10.48;3.92;;;;;;;;;;5088877;28;20043;-72
2023/07/11 02:05:43;;;;;;;5.85;3.70;;;;;;;;;;5091360;28;20484;-72
2023/07/11 02:08:09;;;;;;;7.95;4.28;;;;;;;;;;5091932;28;20048;-72
2023/07/11 02:10:35;;;;;;;6.88;4.57;;;;;;;;;;5091403;28;20047;-73
2023/07/11 02:13:01;;;;;;;6.60;3.95;;;;;;;;;;5091513;28;20043;-73
2023/07/11 02:15:27;;;;;;;8.10;3.75;;;;;;;;;;5053190;28;20036;-73
2023/07/11 02:17:53;;;;;;;6.40;3.55;;;;;;;;;;5067212;28;20036;-75
2023/07/11 02:20:19;;;;;;;7.88;3.95;;;;;;;;;;5091961;28;20449;-76
2023/07/11 02:22:45;;;;;;;7.70;3.63;;;;;;;;;;5073872;28;20059;-76
2023/07/11 02:25:11;;;;;;;7.82;3.67;;;;;;;;;;5091856;28;20135;-76
2023/07/11 02:27:37;;;;;;;7.57;3.30;;;;;;;;;;5092061;28;20044;-76
2023/07/11 02:30:04;;;;;;;6.60;3.67;;;;;;;;;;5090419;28;20089;-76
2023/07/11 02:32:30;;;;;;;8.35;3.60;;;;;;;;;;5091731;28;20032;-76
2023/07/11 02:34:56;;;;;;;7.88;3.67;;;;;;;;;;5091957;28;20050;-76
2023/07/11 02:37:22;;;;;;;9.45;3.60;;;;;;;;;;5073690;28;20036;-76
2023/07/11 02:39:48;;;;;;;8.57;3.55;;;;;;;;;;5092023;28;20044;-76
2023/07/11 02:42:14;;;;;;;7.47;3.40;;;;;;;;;;5074009;28;20046;-75
2023/07/11 02:44:40;;;;;;;8.15;3.80;;;;;;;;;;5091630;28;20191;-75
2023/07/11 02:47:06;;;;;;;6.90;3.67;;;;;;;;;;5090456;28;20040;-76
2023/07/11 02:49:32;;;;;;;7.22;3.67;;;;;;;;;;5090116;28;20039;-76
2023/07/11 02:51:58;;;;;;;7.72;3.50;;;;;;;;;;5090627;28;20048;-76
2023/07/11 02:54:25;;;;;;;6.50;3.63;;;;;;;;;;5090293;28;20040;-76
2023/07/11 02:56:51;;;;;;;7.53;3.80;;;;;;;;;;5090570;28;20407;-76
2023/07/11 02:59:17;;;;;;;7.40;3.83;;;;;;;;;;5089808;28;20066;-76
2023/07/11 03:01:43;;;;;;;8.65;3.90;;;;;;;;;;5090134;28;20127;-76
2023/07/11 03:04:09;;;;;;;9.55;3.67;;;;;;;;;;5090206;28;20044;-76
2023/07/11 03:06:35;;;;;;;9.77;3.60;;;;;;;;;;5090313;28;20068;-76
2023/07/11 03:09:01;;;;;;;6.40;3.35;;;;;;;;;;5089391;28;20063;-76
2023/07/11 03:11:27;;;;;;;7.43;3.40;;;;;;;;;;5073093;28;20044;-75
2023/07/11 03:13:53;;;;;;;8.55;4.10;;;;;;;;;;5090274;28;20052;-76
2023/07/11 03:16:19;;;;;;;7.82;3.78;;;;;;;;;;5089707;28;20036;-75
2023/07/11 03:18:45;;;;;;;6.95;3.78;;;;;;;;;;5089039;28;20043;-76
2023/07/11 03:21:11;;;;;;;7.18;3.83;;;;;;;;;;5093258;28;20485;-76
2023/07/11 03:23:38;;;;;;;8.93;3.70;;;;;;;;;;5086495;28;20053;-76
2023/07/11 03:26:04;;;;;;;6.63;3.72;;;;;;;;;;5090464;28;20040;-76
2023/07/11 03:28:30;;;;;;;6.20;3.83;;;;;;;;;;5092744;28;20052;-76
2023/07/11 03:30:56;;;;;;;11.48;4.05;;;;;;;;;;5094932;28;20040;-76
2023/07/11 03:33:22;;;;;;;7.85;3.92;;;;;;;;;;5095159;28;20108;-76
2023/07/11 03:35:49;;;;;;;8.95;3.92;;;;;;;;;;5076313;28;20392;-76
2023/07/11 03:38:15;;;;;;;9.55;4.35;;;;;;;;;;5093782;28;20126;-76
2023/07/11 03:40:41;;;;;;;8.68;4.03;;;;;;;;;;5075901;28;20575;-76
2023/07/11 03:43:07;;;;;;;8.00;4.45;;;;;;;;;;5093377;28;20044;-76
2023/07/11 03:45:33;;;;;;;13.38;4.38;;;;;;;;;;5092613;28;20122;-76
2023/07/11 03:47:59;;;;;;;9.23;4.60;;;;;;;;;;5093323;28;20040;-76
2023/07/11 03:50:25;;;;;;;10.35;4.88;;;;;;;;;;5093946;28;20036;-75
2023/07/11 03:52:51;;;;;;;10.88;4.80;;;;;;;;;;5094754;28;20595;-75
2023/07/11 03:55:17;;;;;;;12.82;5.32;;;;;;;;;;5093196;28;20059;-75
2023/07/11 03:57:43;;;;;;;11.30;4.78;;;;;;;;;;5093499;28;20122;-75
2023/07/11 04:00:10;;;;;;;7.00;4.80;;;;;;;;;;5075888;28;20040;-75
2023/07/11 04:02:36;;;;;;;9.30;5.10;;;;;;;;;;5091088;28;20492;-75
2023/07/11 04:05:02;;;;;;;12.02;5.07;;;;;;;;;;5092679;28;20048;-76
2023/07/11 04:07:28;;;;;;;9.23;5.40;;;;;;;;;;5093532;28;20111;-76
2023/07/11 04:09:54;;;;;;;9.65;5.35;;;;;;;;;;5093325;28;20117;-76
2023/07/11 04:12:20;;;;;;;14.52;5.80;;;;;;;;;;5092226;28;20044;-76
2023/07/11 04:14:46;;;;;;;10.63;5.80;;;;;;;;;;5058999;28;20051;-76
2023/07/11 04:17:12;;;;;;;10.55;5.60;;;;;;;;;;5093906;28;20036;-76
2023/07/11 04:19:38;;;;;;;13.30;6.13;;;;;;;;;;5093698;28;20039;-76
2023/07/11 04:22:04;;;;;;;10.88;6.18;;;;;;;;;;5093999;28;20036;-76
2023/07/11 04:24:30;;;;;;;10.85;5.80;;;;;;;;;;5092537;28;20097;-75
2023/07/11 04:26:56;;;;;;;12.50;6.03;;;;;;;;;;5075922;28;20119;-75
2023/07/11 04:29:23;;;;;;;10.40;5.82;;;;;;;;;;5093102;28;20036;-76
2023/07/11 04:31:49;;;;;;;11.30;5.80;;;;;;;;;;5090939;28;20460;-75
2023/07/11 04:34:15;;;;;;;14.35;5.95;;;;;;;;;;5093077;28;20039;-76
2023/07/11 04:36:41;;;;;;;12.90;6.63;;;;;;;;;;5092246;28;20071;-76
2023/07/11 04:39:07;;;;;;;15.95;6.25;;;;;;;;;;5092644;28;20051;-75
2023/07/11 04:41:33;;;;;;;18.95;6.00;;;;;;;;;;5092448;28;20043;-76
2023/07/11 04:43:59;;;;;;;9.07;5.78;;;;;;;;;;5092282;28;20040;-76
2023/07/11 04:46:25;;;;;;;11.05;6.05;;;;;;;;;;5092468;28;20036;-76
2023/07/11 04:48:51;;;;;;;10.02;5.65;;;;;;;;;;5092049;28;20036;-75
2023/07/11 04:51:18;;;;;;;15.10;6.13;;;;;;;;;;5091805;28;20046;-76
2023/07/11 04:53:44;;;;;;;12.02;5.70;;;;;;;;;;5091409;28;20040;-74
2023/07/11 04:56:10;;;;;;;10.23;6.18;;;;;;;;;;5092237;28;20547;-75
2023/07/11 04:58:37;;;;;;;11.23;6.20;;;;;;;;;;5091629;28;20067;-75
2023/07/11 05:01:13;;;;;;;10.98;5.60;;;;;;;;;;5093510;28;20091;-75
2023/07/11 05:03:39;;;;;;;15.20;6.03;;;;;;;;;;5093056;28;20465;-75
2023/07/11 05:06:06;;;;;;;10.45;5.57;;;;;;;;;;5091955;28;20079;-75
2023/07/11 05:08:32;;;;;;;10.93;6.10;;;;;;;;;;5092832;28;20044;-75
2023/07/11 05:11:11;;;;;;;10.63;6.07;;;;;;;;;;5091458;28;20086;-75
2023/07/11 05:13:37;;;;;;;12.57;5.80;;;;;;;;;;5092723;28;20035;-74
2023/07/11 05:16:04;;;;;;;11.05;5.78;;;;;;;;;;5092767;28;20032;-75
2023/07/11 05:18:30;;;;;;;25.80;6.18;;;;;;;;;;5093012;28;20040;-76
2023/07/11 05:20:57;;;;;;;11.48;5.03;;;;;;;;;;5091394;28;20038;-75
2023/07/11 05:23:24;;;;;;;11.60;5.32;;;;;;;;;;5091412;28;20119;-75
2023/07/11 05:25:50;;;;;;;9.07;5.30;;;;;;;;;;5090910;28;20051;-74
2023/07/11 05:28:17;;;;;;;11.38;5.38;;;;;;;;;;5093139;28;20406;-74
2023/07/11 05:30:43;;;;;;;7.72;4.88;;;;;;;;;;5089225;28;20032;-74
2023/07/11 05:33:09;;;;;;;13.38;5.70;;;;;;;;;;5092358;28;20594;-74
2023/07/11 05:35:46;;;;;;;10.02;5.32;;;;;;;;;;5092488;28;20024;-74
2023/07/11 05:38:14;;;;;;;9.10;5.45;;;;;;;;;;5069559;28;20380;-75
2023/07/11 05:40:43;;;;;;;9.38;4.93;;;;;;;;;;5082047;28;20043;-75
2023/07/11 05:43:09;;;;;;;12.07;5.13;;;;;;;;;;5091901;28;20097;-75
2023/07/11 05:45:35;;;;;;;11.65;5.60;;;;;;;;;;5092235;28;20047;-75
2023/07/11 05:48:01;;;;;;;9.88;5.05;;;;;;;;;;5092032;28;20507;-75
2023/07/11 05:50:27;;;;;;;9.07;4.97;;;;;;;;;;5091600;28;20546;-75
2023/07/11 05:52:54;;;;;;;9.20;5.35;;;;;;;;;;5090960;28;20400;-75
2023/07/11 05:55:20;;;;;;;9.07;4.90;;;;;;;;;;5091248;28;20036;-75
2023/07/11 05:57:46;;;;;;;10.18;5.25;;;;;;;;;;5090663;28;20044;-75
2023/07/11 06:00:12;;;;;;;9.35;5.03;;;;;;;;;;5074184;28;20449;-72
2023/07/11 06:02:38;;;;;;;10.32;5.20;;;;;;;;;;5090948;28;20054;-73
2023/07/11 06:05:04;;;;;;;7.90;4.88;;;;;;;;;;5076588;28;20040;-72
2023/07/11 06:07:31;;;;;;;11.32;5.35;;;;;;;;;;5086343;28;20051;-72
2023/07/11 06:09:58;;;;;;;9.88;4.93;;;;;;;;;;5090337;28;20063;-73
2023/07/11 06:12:24;;;;;;;7.65;4.57;;;;;;;;;;5092542;28;20528;-72
2023/07/11 06:14:50;;;;;;;8.52;4.93;;;;;;;;;;5088958;28;20043;-72
2023/07/11 06:17:17;;;;;;;8.15;5.07;;;;;;;;;;5090801;28;20098;-72
2023/07/11 06:19:43;;;;;;;8.45;4.45;;;;;;;;;;5090716;28;20082;-73
2023/07/11 06:22:10;;;;;;;7.30;4.60;;;;;;;;;;5049756;28;20149;-72
2023/07/11 06:24:37;;;;;;;9.13;4.72;;;;;;;;;;5086772;28;20465;-73
2023/07/11 06:27:03;;;;;;;7.30;4.63;;;;;;;;;;5091536;28;20041;-73
2023/07/11 06:29:30;;;;;;;9.68;5.05;;;;;;;;;;5086654;28;20036;-71
2023/07/11 06:31:56;;;;;;;8.55;4.38;;;;;;;;;;5090680;28;20038;-72
2023/07/11 06:34:22;;;;;;;8.02;4.63;;;;;;;;;;5090071;28;20059;-72
2023/07/11 06:36:48;;;;;;;8.55;4.47;;;;;;;;;;5073149;28;20488;-71
2023/07/11 06:39:14;;;;;;;10.23;4.45;;;;;;;;;;5090736;28;20485;-72
2023/07/11 06:41:41;;;;;;;7.45;4.35;;;;;;;;;;5073114;28;20131;-72
2023/07/11 06:44:08;;;;;;;8.50;4.38;;;;;;;;;;5089430;28;20106;-72
2023/07/11 06:46:34;;;;;;;7.50;4.35;;;;;;;;;;5089820;28;20107;-72
2023/07/11 06:49:01;;;;;;;15.02;4.72;;;;;;;;;;5072334;28;20469;-72
2023/07/11 06:51:28;;;;;;;11.25;4.10;;;;;;;;;;5091188;28;20039;-72
2023/07/11 06:53:55;;;;;;;6.55;4.05;;;;;;;;;;5091406;28;20545;-72
2023/07/11 06:56:22;;;;;;;6.47;4.00;;;;;;;;;;5095128;28;20048;-72
2023/07/11 06:58:49;;;;;;;9.50;4.18;;;;;;;;;;5095882;28;20491;-72
2023/07/11 07:01:15;;;;;;;8.45;3.85;;;;;;;;;;5094232;28;20545;-72
2023/07/11 07:03:41;;;;;;;12.02;4.47;;;;;;;;;;5095872;28;20504;-75
2023/07/11 07:06:12;;;;;;;6.78;3.95;;;;;;;;;;5076980;28;20043;-72
2023/07/11 07:08:38;;;;;;;8.75;3.42;;;;;;;;;;5094411;28;20177;-72
2023/07/11 07:11:05;;;;;;;8.45;3.55;;;;;;;;;;5093770;28;20084;-75
2023/07/11 07:13:31;;;;;;;7.97;3.70;;;;;;;;;;5095692;28;20044;-75
2023/07/11 07:15:59;;;;;;;8.40;3.85;;;;;;;;;;5093884;28;20044;-74
2023/07/11 07:18:25;;;;;;;10.20;3.55;;;;;;;;;;5095319;28;20032;-75
2023/07/11 07:20:52;;;;;;;7.70;3.65;;;;;;;;;;5095711;28;20473;-75
2023/07/11 07:23:19;;;;;;;6.03;3.60;;;;;;;;;;5095097;28;20040;-75
2023/07/11 07:25:52;;;;;;;5.95;3.50;;;;;;;;;;5095398;28;20039;-75
2023/07/11 07:28:18;;;;;;;6.68;3.78;;;;;;;;;;5076551;28;20039;-74
2023/07/11 07:30:47;;;;;;;11.23;3.72;;;;;;;;;;5095191;28;20481;-74
2023/07/11 07:33:14;;;;;;;6.18;3.33;;;;;;;;;;5094671;28;20773;-75
2023/07/11 07:35:40;;;;;;;7.88;3.33;;;;;;;;;;5095395;28;20028;-74
2023/07/11 07:38:06;;;;;;;6.68;3.47;;;;;;;;;;5093908;28;20040;-75
2023/07/11 07:40:33;;;;;;;5.68;3.40;;;;;;;;;;5095404;28;20067;-74
2023/07/11 07:42:59;;;;;;;7.28;3.70;;;;;;;;;;5094496;28;20044;-74
2023/07/11 07:45:25;;;;;;;8.05;3.83;;;;;;;;;;5093810;28;20036;-73
2023/07/11 07:47:51;;;;;;;7.82;3.65;;;;;;;;;;5094017;28;20063;-74
2023/07/11 07:50:17;;;;;;;6.85;3.00;;;;;;;;;;5094589;28;20496;-74
2023/07/11 07:52:43;;;;;;;6.97;3.55;;;;;;;;;;5076369;28;20040;-73
2023/07/11 07:55:09;;;;;;;8.10;3.67;;;;;;;;;;5093556;28;20060;-73
2023/07/11 07:57:36;;;;;;;10.18;3.45;;;;;;;;;;5093398;28;20044;-74
2023/07/11 08:00:04;;;;;;;7.85;3.53;;;;;;;;;;5094522;28;20093;-74
2023/07/11 08:02:31;;;;;;;7.70;3.53;;;;;;;;;;5093703;28;20040;-74
2023/07/11 08:05:00;;;;;;;8.48;3.70;;;;;;;;;;5094227;28;20381;-74
2023/07/11 08:07:27;;;;;;;6.97;3.20;;;;;;;;;;5094329;28;20082;-74
2023/07/11 08:09:55;;;;;;;6.10;3.13;;;;;;;;;;5093025;28;20048;-74
2023/07/11 08:12:21;;;;;;;7.32;2.97;;;;;;;;;;5093195;28;20046;-73
2023/07/11 08:14:47;;;;;;;7.97;2.95;;;;;;;;;;5093768;28;20123;-75
2023/07/11 08:17:13;;;;;;;6.85;2.50;;;;;;;;;;5094165;28;20035;-74
2023/07/11 08:19:39;;;;;;;9.27;2.75;;;;;;;;;;5094609;28;20093;-75
2023/07/11 08:22:06;;;;;;;5.35;2.63;;;;;;;;;;5094122;28;20044;-74
2023/07/11 08:24:32;;;;;;;10.77;2.80;;;;;;;;;;5093831;28;20090;-74
2023/07/11 08:26:59;;;;;;;9.63;2.60;;;;;;;;;;5092965;28;20032;-75
2023/07/11 08:29:25;;;;;;;8.70;3.38;;;;;;;;;;5092895;28;20481;-74
2023/07/11 08:31:51;;;;;;;5.95;2.50;;;;;;;;;;5093929;28;20043;-74
2023/07/11 08:34:17;;;;;;;7.22;2.30;;;;;;;;;;5093869;28;20044;-75
2023/07/11 08:36:45;;;;;;;9.32;2.65;;;;;;;;;;5079404;28;20044;-75
2023/07/11 08:39:12;;;;;;;5.10;2.40;;;;;;;;;;5091407;28;20047;-75
2023/07/11 08:41:46;;;;;;;5.82;2.13;;;;;;;;;;5093122;28;20481;-73
2023/07/11 08:44:15;;;;;;;6.30;2.10;;;;;;;;;;5093744;28;20111;-74
2023/07/11 08:47:02;;;;;;;6.88;2.20;;;;;;;;;;5092429;28;20035;-74
2023/07/11 08:49:34;;;;;;;4.75;1.80;;;;;;;;;;5079345;28;20075;-74
2023/07/11 08:52:01;;;;;;;5.47;2.05;;;;;;;;;;5094150;28;20044;-74
2023/07/11 08:54:46;;;;;;;8.00;2.20;;;;;;;;;;5093394;28;20046;-71
2023/07/11 08:57:13;;;;;;;7.10;2.10;;;;;;;;;;5091661;28;20051;-72
2023/07/11 09:00:14;;;;;;;7.13;2.22;;;;;;;;;;5092230;28;20032;-75
2023/07/11 09:02:59;;;;;;;5.20;2.00;;;;;;;;;;5051067;28;20041;-72
2023/07/11 09:05:44;;;;;;;5.93;2.20;;;;;;;;;;5087634;28;20117;-73
2023/07/11 09:08:14;;;;;;;4.63;2.05;;;;;;;;;;5092400;28;20290;-72
2023/07/11 09:10:43;;;;;;;5.55;2.13;;;;;;;;;;5093540;28;20052;-71
2023/07/11 09:13:14;;;;;;;4.35;1.83;;;;;;;;;;5092793;28;20032;-71
2023/07/11 09:15:58;;;;;;;5.70;2.20;;;;;;;;;;5092076;28;20043;-71
2023/07/11 09:18:39;;;;;;;10.13;2.40;;;;;;;;;;5084750;28;20036;-71
2023/07/11 09:21:14;;;;;;;7.38;2.38;;;;;;;;;;5093189;28;20161;-72
2023/07/11 09:23:43;;;;;;;7.78;2.38;;;;;;;;;;5091802;28;20055;-72
2023/07/11 09:26:13;;;;;;;6.40;2.53;;;;;;;;;;5091679;28;20047;-72
2023/07/11 09:28:41;;;;;;;6.47;2.10;;;;;;;;;;5092743;28;20093;-71
2023/07/11 09:31:08;;;;;;;5.55;2.10;;;;;;;;;;5093016;28;20044;-71
2023/07/11 09:33:39;;;;;;;5.30;2.20;;;;;;;;;;5091820;28;20044;-71
2023/07/11 09:36:16;;;;;;;6.05;2.05;;;;;;;;;;5092897;28;20040;-71
2023/07/11 09:38:48;;;;;;;11.73;2.17;;;;;;;;;;5092198;28;20036;-71
2023/07/11 09:41:16;;;;;;;6.35;2.35;;;;;;;;;;5092779;28;20476;-71
2023/07/11 09:43:43;;;;;;;7.88;2.20;;;;;;;;;;5092618;28;20127;-71
2023/07/11 09:46:13;;;;;;;6.93;2.13;;;;;;;;;;5091537;28;20040;-72
2023/07/11 09:48:39;;;;;;;9.25;2.28;;;;;;;;;;5092677;28;20425;-71
2023/07/11 09:51:11;;;;;;;4.90;2.30;;;;;;;;;;5092200;28;20028;-71
2023/07/11 09:53:41;;;;;;;5.55;2.40;;;;;;;;;;5091590;28;20040;-70
2023/07/11 09:56:17;;;;;;;7.75;2.40;;;;;;;;;;5091309;28;20123;-71
2023/07/11 09:58:53;;;;;;;8.65;2.40;;;;;;;;;;5092519;28;20044;-71
2023/07/11 10:01:27;;;;;;;5.82;2.25;;;;;;;;;;5091463;28;20032;-71
2023/07/11 10:03:55;;;;;;;9.23;2.30;;;;;;;;;;5091117;28;20040;-71
2023/07/11 10:06:29;;;;;;;6.30;2.22;;;;;;;;;;5092190;28;20066;-70
2023/07/11 10:08:55;;;;;;;7.63;2.23;;;;;;;;;;5090952;28;20136;-72
2023/07/11 10:11:22;;;;;;;6.00;2.30;;;;;;;;;;5089848;28;20047;-71
2023/07/11 10:13:48;;;;;;;6.22;2.17;;;;;;;;;;5092391;28;20044;-74
2023/07/11 10:16:18;;;;;;;6.47;2.10;;;;;;;;;;5092079;28;20076;-70
2023/07/11 10:18:44;;;;;;;17.42;2.28;;;;;;;;;;5092506;28;20036;-71
2023/07/11 10:21:16;;;;;;;4.35;2.03;;;;;;;;;;5073551;28;20123;-70
2023/07/11 10:23:46;;;;;;;6.15;2.13;;;;;;;;;;5090941;28;20040;-71
2023/07/11 10:26:21;;;;;;;6.82;2.08;;;;;;;;;;5090926;28;20040;-71
2023/07/11 10:28:47;;;;;;;;;;;;;;;;;;5092184;28;20098;-72
2023/07/11 10:31:18;;;;;;;9.85;2.05;;;;;;;;;;5096165;28;20368;-71
2023/07/11 10:33:48;;;;;;;15.40;1.90;;;;;;;;;;5096203;28;20051;-71
2023/07/11 10:36:27;;;;;;;8.80;1.98;;;;;;;;;;5096649;28;20119;-71
2023/07/11 10:38:58;;;;;;;8.55;1.98;;;;;;;;;;5096301;28;20449;-74
2023/07/11 10:41:28;;;;;;;8.20;2.10;;;;;;;;;;5094501;28;20058;-71
2023/07/11 10:43:55;;;;;;;7.85;1.90;;;;;;;;;;5096173;28;20484;-70
2023/07/11 10:46:24;;;;;;;4.95;2.05;;;;;;;;;;5095050;28;20128;-74
2023/07/11 10:48:53;;;;;;;8.13;1.90;;;;;;;;;;5096108;28;20028;-74
2023/07/11 10:51:37;;;;;;;6.68;2.03;;;;;;;;;;5078009;28;20032;-74
2023/07/11 10:54:12;;;;;;;4.73;1.80;;;;;;;;;;5093845;28;20071;-74
2023/07/11 10:56:38;;;;;;;;;;;;;;;;;;5095256;28;20294;-74
2023/07/11 10:59:04;;;;;;;5.68;2.00;;;;;;;;;;5094483;28;19990;-74
2023/07/11 11:01:36;;;;;;;7.05;2.05;;;;;;;;;;5094419;28;20204;-74
2023/07/11 11:04:22;;;;;;;5.90;2.10;;;;;;;;;;5095660;28;20515;-75
2023/07/11 11:07:04;;;;;;;9.63;2.00;;;;;;;;;;5084658;28;20036;-73
2023/07/11 11:09:38;;;;;;;5.13;1.80;;;;;;;;;;5093887;28;20441;-73
2023/07/11 11:12:23;;;;;;;16.23;2.75;;;;;;;;;;5094589;28;20083;-74
2023/07/11 11:14:49;;;;;;;5.93;2.03;;;;;;;;;;5095389;28;20097;-72
2023/07/11 11:17:21;;;;;;;7.72;2.03;;;;;;;;;;5095802;28;20370;-73
2023/07/11 11:20:07;;;;;;;7.68;2.67;;;;;;;;;;5095770;28;20043;-73
2023/07/11 11:22:42;;;;;;;7.68;2.53;;;;;;;;;;5095127;28;20081;-73
2023/07/11 11:25:16;;;;;;;7.15;2.30;;;;;;;;;;5093530;28;20039;-73
2023/07/11 11:27:42;;;;;;;8.57;2.72;;;;;;;;;;5095293;28;20046;-71
2023/07/11 11:30:17;;;;;;;9.05;2.50;;;;;;;;;;5093872;28;20028;-70
2023/07/11 11:32:43;;;;;;;6.78;2.40;;;;;;;;;;5076676;28;20523;-71
2023/07/11 11:35:36;;;;;;;8.85;2.50;;;;;;;;;;5094950;28;20047;-71
2023/07/11 11:38:08;;;;;;;8.07;2.58;;;;;;;;;;5079203;28;20048;-70
2023/07/11 11:40:40;;;;;;;8.30;2.60;;;;;;;;;;5094179;28;20046;-71
2023/07/11 11:43:10;;;;;;;9.80;2.45;;;;;;;;;;5095031;28;20036;-72
2023/07/11 11:45:37;;;;;;;11.38;3.03;;;;;;;;;;5076295;28;20043;-70
2023/07/11 11:48:03;;;;;;;8.30;2.60;;;;;;;;;;5093934;28;20111;-71
2023/07/11 11:50:31;;;;;;;9.20;2.40;;;;;;;;;;5094844;28;20173;-70
2023/07/11 11:52:58;;;;;;;9.00;2.92;;;;;;;;;;5093296;28;20182;-74
2023/07/11 11:55:26;;;;;;;6.80;2.45;;;;;;;;;;5076406;28;20132;-71
2023/07/11 11:57:52;;;;;;;6.35;2.50;;;;;;;;;;5094982;28;20078;-71
2023/07/11 12:00:39;;;;;;;9.35;2.70;;;;;;;;;;5076765;28;20071;-70
2023/07/11 12:03:06;;;;;;;7.28;2.42;;;;;;;;;;5092958;28;20043;-72
2023/07/11 12:05:33;;;;;;;8.63;2.55;;;;;;;;;;5094101;28;20500;-73
2023/07/11 12:08:18;;;;;;;8.02;2.47;;;;;;;;;;5092056;28;20405;-71
2023/07/11 12:11:03;;;;;;;7.28;2.40;;;;;;;;;;5094070;28;20047;-72
2023/07/11 12:13:30;;;;;;;10.60;2.50;;;;;;;;;;5081702;28;20507;-74
2023/07/11 12:15:57;;;;;;;6.45;2.40;;;;;;;;;;5093263;28;20044;-73
2023/07/11 12:18:26;;;;;;;5.82;2.33;;;;;;;;;;5093277;28;20403;-73
2023/07/11 12:21:25;;;;;;;7.97;2.85;;;;;;;;;;5094249;28;20055;-72
2023/07/11 12:23:53;;;;;;;8.07;2.67;;;;;;;;;;5043531;28;20132;-74
2023/07/11 12:26:23;;;;;;;8.88;2.50;;;;;;;;;;5092873;28;20043;-72
2023/07/11 12:28:50;;;;;;;12.13;2.63;;;;;;;;;;5092314;28;20105;-73
2023/07/11 12:31:21;;;;;;;7.00;2.10;;;;;;;;;;5094414;28;20040;-74
2023/07/11 12:34:00;;;;;;;8.55;2.60;;;;;;;;;;5092461;28;20044;-72
2023/07/11 12:36:35;;;;;;;6.90;2.30;;;;;;;;;;5092660;28;20464;-72
2023/07/11 12:39:07;;;;;;;6.88;2.20;;;;;;;;;;5093742;28;20500;-70
2023/07/11 12:41:39;;;;;;;8.50;2.63;;;;;;;;;;5093864;28;20119;-70
2023/07/11 12:44:05;;;;;;;9.75;2.55;;;;;;;;;;5093920;28;20119;-71
2023/07/11 12:46:34;;;;;;;7.97;2.60;;;;;;;;;;5093148;28;20040;-71
2023/07/11 12:49:02;;;;;;;20.60;3.63;;;;;;;;;;5092173;28;20105;-70
2023/07/11 12:51:33;;;;;;;40.60;4.72;;;;;;;;;;5092414;28;20040;-72
2023/07/11 12:54:24;;;;;;;8.73;2.20;;;;;;;;;;5093076;28;20047;-72
2023/07/11 12:56:51;;;;;;;8.10;2.05;;;;;;;;;;5092159;28;20429;-71
2023/07/11 12:59:27;;;;;;;14.15;2.63;;;;;;;;;;5093086;28;20089;-70
2023/07/11 13:01:54;;;;;;;4.35;2.08;;;;;;;;;;5074611;28;20055;-70
2023/07/11 13:04:36;;;;;;;5.97;2.20;;;;;;;;;;5092014;28;20052;-70
2023/07/11 13:07:24;;;;;;;7.00;2.90;;;;;;;;;;5093239;28;20044;-72
2023/07/11 13:09:51;;;;;;;5.53;2.28;;;;;;;;;;5074244;28;20048;-73
2023/07/11 13:12:20;;;;;;;5.90;2.15;;;;;;;;;;5093252;28;20040;-73
2023/07/11 13:14:47;;;;;;;7.10;2.08;;;;;;;;;;5092027;28;20040;-73
2023/07/11 13:17:17;;;;;;;4.82;1.92;;;;;;;;;;5093149;28;20036;-71
2023/07/11 13:19:44;;;;;;;6.18;2.40;;;;;;;;;;5074667;28;20044;-71
2023/07/11 13:22:15;;;;;;;6.40;2.30;;;;;;;;;;5093185;28;20039;-72
2023/07/11 13:24:41;;;;;;;3.78;2.15;;;;;;;;;;5091505;28;20500;-71
2023/07/11 13:27:14;;;;;;;6.65;2.10;;;;;;;;;;5092068;28;20085;-72
2023/07/11 13:29:42;;;;;;;8.27;2.08;;;;;;;;;;5091480;28;20415;-74
2023/07/11 13:32:13;;;;;;;7.35;2.47;;;;;;;;;;5092006;28;20377;-73
2023/07/11 13:34:39;;;;;;;5.68;2.17;;;;;;;;;;5091629;28;20040;-73
2023/07/11 13:37:08;;;;;;;6.22;2.10;;;;;;;;;;5093091;28;20438;-72
2023/07/11 13:39:43;;;;;;;6.45;2.10;;;;;;;;;;5091483;28;20079;-73
2023/07/11 13:42:09;;;;;;;;;;;;;;;;;;5092709;28;20040;-73
2023/07/11 13:44:37;;;;;;;6.18;2.30;;;;;;;;;;5091662;28;19973;-73
2023/07/11 13:47:11;;;;;;;9.48;2.20;;;;;;;;;;5092971;28;20036;-72
2023/07/11 13:49:43;;;;;;;4.47;2.08;;;;;;;;;;5092795;28;20050;-72
2023/07/11 13:52:38;;;;;;;5.53;2.10;;;;;;;;;;5091560;28;20606;-72
2023/07/11 13:55:19;;;;;;;6.63;1.83;;;;;;;;;;5083578;28;20051;-72
2023/07/11 13:57:45;;;;;;;6.00;2.10;;;;;;;;;;5092329;28;20115;-77
2023/07/11 14:00:12;;;;;;;5.50;1.92;;;;;;;;;;5091156;28;20628;-72
2023/07/11 14:02:39;;;;;;;4.30;1.90;;;;;;;;;;5092231;28;20036;-72
2023/07/11 14:05:11;;;;;;;4.03;1.65;;;;;;;;;;5073833;28;20044;-73
2023/07/11 14:07:37;;;;;;;5.97;2.20;;;;;;;;;;5092629;28;20040;-73
2023/07/11 14:10:05;;;;;;;8.27;2.08;;;;;;;;;;5090515;28;20055;-74
2023/07/11 14:12:31;;;;;;;4.85;1.95;;;;;;;;;;5090927;28;20040;-73
2023/07/11 14:14:57;;;;;;;4.70;1.70;;;;;;;;;;5092313;28;20075;-72
2023/07/11 14:17:24;;;;;;;5.18;2.03;;;;;;;;;;5092284;28;20032;-73
2023/07/11 14:19:50;;;;;;;7.78;2.08;;;;;;;;;;5091051;28;20075;-73
2023/07/11 14:22:24;;;;;;;4.82;1.92;;;;;;;;;;5090678;28;20511;-73
2023/07/11 14:24:51;;;;;;;5.97;1.70;;;;;;;;;;5082734;28;20040;-72
2023/07/11 14:27:17;;;;;;;10.82;1.65;;;;;;;;;;5092430;28;20465;-72
2023/07/11 14:29:44;;;;;;;6.65;1.80;;;;;;;;;;5092184;28;20036;-71
2023/07/11 14:32:17;;;;;;;4.90;1.50;;;;;;;;;;5091861;28;20064;-71
2023/07/11 14:34:43;;;;;;;6.72;1.73;;;;;;;;;;5090693;28;20048;-71
2023/07/11 14:37:16;;;;;;;5.70;2.15;;;;;;;;;;5091048;28;20488;-72
2023/07/11 14:39:42;;;;;;;5.70;1.80;;;;;;;;;;5090793;28;20046;-72
2023/07/11 14:42:32;;;;;;;6.70;1.90;;;;;;;;;;5091624;28;20093;-71
2023/07/11 14:44:58;;;;;;;5.07;1.85;;;;;;;;;;5091584;28;20044;-72
2023/07/11 14:47:24;;;;;;;12.95;2.60;;;;;;;;;;5090550;28;20036;-71
2023/07/11 14:49:51;;;;;;;5.88;1.67;;;;;;;;;;5090604;28;20036;-72